sensor_id;sensor_type;location;lat;lon;timestamp;P1;durP1;ratioP1;P2;durP2;ratioP2
58272;SDS011;44075;42.436;18.514;2022-11-15T00:02:01;11.60;;;6.47;;
58272;SDS011;44075;42.436;18.514;2022-11-15T00:04:29;15.27;;;6.28;;
58272;SDS011;44075;42.436;18.514;2022-11-15T00:06:55;13.30;;;6.22;;
58272;SDS011;44075;42.436;18.514;2022-11-15T00:09:21;12.30;;;6.50;;
58272;SDS011;44075;42.436;18.514;2022-11-15T00:11:47;17.67;;;6.30;;
58272;SDS011;44075;42.436;18.514;2022-11-15T00:14:17;16.63;;;6.03;;
58272;SDS011;44075;42.436;18.514;2022-11-15T00:16:43;14.10;;;6.38;;
58272;SDS011;44075;42.436;18.514;2022-11-15T00:19:09;13.27;;;6.57;;
58272;SDS011;44075;42.436;18.514;2022-11-15T00:21:35;14.68;;;5.93;;
58272;SDS011;44075;42.436;18.514;2022-11-15T00:24:01;12.23;;;6.28;;
58272;SDS011;44075;42.436;18.514;2022-11-15T00:26:27;11.80;;;5.97;;
58272;SDS011;44075;42.436;18.514;2022-11-15T00:28:53;13.23;;;6.05;;
58272;SDS011;44075;42.436;18.514;2022-11-15T00:31:19;11.38;;;6.55;;
58272;SDS011;44075;42.436;18.514;2022-11-15T00:33:45;13.35;;;5.68;;
58272;SDS011;44075;42.436;18.514;2022-11-15T00:36:11;11.95;;;6.22;;
58272;SDS011;44075;42.436;18.514;2022-11-15T00:38:38;11.98;;;5.90;;
58272;SDS011;44075;42.436;18.514;2022-11-15T00:41:05;12.02;;;5.95;;
58272;SDS011;44075;42.436;18.514;2022-11-15T00:43:32;11.90;;;6.00;;
58272;SDS011;44075;42.436;18.514;2022-11-15T00:46:01;13.57;;;6.78;;
58272;SDS011;44075;42.436;18.514;2022-11-15T00:48:28;11.02;;;6.47;;
58272;SDS011;44075;42.436;18.514;2022-11-15T00:50:54;12.60;;;6.55;;
58272;SDS011;44075;42.436;18.514;2022-11-15T00:53:20;12.18;;;5.85;;
58272;SDS011;44075;42.436;18.514;2022-11-15T00:55:46;9.57;;;5.30;;
58272;SDS011;44075;42.436;18.514;2022-11-15T00:58:12;12.57;;;6.20;;
58272;SDS011;44075;42.436;18.514;2022-11-15T01:00:38;12.65;;;6.57;;
58272;SDS011;44075;42.436;18.514;2022-11-15T01:03:04;12.73;;;6.60;;
58272;SDS011;44075;42.436;18.514;2022-11-15T01:05:30;12.77;;;7.35;;
58272;SDS011;44075;42.436;18.514;2022-11-15T01:07:56;11.20;;;6.72;;
58272;SDS011;44075;42.436;18.514;2022-11-15T01:10:23;13.68;;;7.10;;
58272;SDS011;44075;42.436;18.514;2022-11-15T01:12:50;13.98;;;6.47;;
58272;SDS011;44075;42.436;18.514;2022-11-15T01:15:16;10.40;;;6.38;;
58272;SDS011;44075;42.436;18.514;2022-11-15T01:17:42;13.95;;;6.90;;
58272;SDS011;44075;42.436;18.514;2022-11-15T01:20:09;12.50;;;7.10;;
58272;SDS011;44075;42.436;18.514;2022-11-15T01:22:35;10.90;;;5.40;;
58272;SDS011;44075;42.436;18.514;2022-11-15T01:25:01;13.13;;;7.13;;
58272;SDS011;44075;42.436;18.514;2022-11-15T01:27:27;13.80;;;7.07;;
58272;SDS011;44075;42.436;18.514;2022-11-15T01:29:53;12.45;;;6.35;;
58272;SDS011;44075;42.436;18.514;2022-11-15T01:32:19;10.93;;;6.35;;
58272;SDS011;44075;42.436;18.514;2022-11-15T01:34:45;12.95;;;7.03;;
58272;SDS011;44075;42.436;18.514;2022-11-15T01:37:11;11.32;;;5.63;;
58272;SDS011;44075;42.436;18.514;2022-11-15T01:39:37;10.52;;;6.13;;
58272;SDS011;44075;42.436;18.514;2022-11-15T01:42:03;14.07;;;6.25;;
58272;SDS011;44075;42.436;18.514;2022-11-15T01:49:37;8.30;;;4.47;;
58272;SDS011;44075;42.436;18.514;2022-11-15T01:52:05;9.38;;;4.68;;
58272;SDS011;44075;42.436;18.514;2022-11-15T01:54:33;10.30;;;4.40;;
58272;SDS011;44075;42.436;18.514;2022-11-15T01:57:00;8.32;;;4.43;;
58272;SDS011;44075;42.436;18.514;2022-11-15T01:59:27;8.45;;;4.05;;
58272;SDS011;44075;42.436;18.514;2022-11-15T02:01:54;9.43;;;3.88;;
58272;SDS011;44075;42.436;18.514;2022-11-15T02:04:21;8.55;;;4.10;;
58272;SDS011;44075;42.436;18.514;2022-11-15T02:06:48;8.68;;;3.90;;
58272;SDS011;44075;42.436;18.514;2022-11-15T02:09:14;9.50;;;3.50;;
58272;SDS011;44075;42.436;18.514;2022-11-15T02:11:41;8.43;;;3.03;;
58272;SDS011;44075;42.436;18.514;2022-11-15T02:14:07;6.95;;;1.90;;
58272;SDS011;44075;42.436;18.514;2022-11-15T02:24:06;8.00;;;2.30;;
58272;SDS011;44075;42.436;18.514;2022-11-15T02:39:23;5.40;;;1.77;;
58272;SDS011;44075;42.436;18.514;2022-11-15T02:41:53;5.20;;;1.88;;
58272;SDS011;44075;42.436;18.514;2022-11-15T02:44:26;6.07;;;1.77;;
58272;SDS011;44075;42.436;18.514;2022-11-15T02:47:00;7.07;;;1.83;;
58272;SDS011;44075;42.436;18.514;2022-11-15T02:49:41;5.85;;;2.08;;
58272;SDS011;44075;42.436;18.514;2022-11-15T02:52:08;5.10;;;1.58;;
58272;SDS011;44075;42.436;18.514;2022-11-15T02:54:34;4.75;;;1.50;;
58272;SDS011;44075;42.436;18.514;2022-11-15T02:57:02;7.07;;;1.70;;
58272;SDS011;44075;42.436;18.514;2022-11-15T03:07:01;6.90;;;2.00;;
58272;SDS011;44075;42.436;18.514;2022-11-15T03:09:34;10.75;;;1.75;;
58272;SDS011;44075;42.436;18.514;2022-11-15T03:12:03;7.95;;;2.30;;
58272;SDS011;44075;42.436;18.514;2022-11-15T03:14:34;7.30;;;2.25;;
58272;SDS011;44075;42.436;18.514;2022-11-15T03:17:23;6.03;;;2.38;;
58272;SDS011;44075;42.436;18.514;2022-11-15T03:19:50;10.05;;;2.65;;
58272;SDS011;44075;42.436;18.514;2022-11-15T03:22:19;6.03;;;2.15;;
58272;SDS011;44075;42.436;18.514;2022-11-15T03:24:51;8.25;;;2.38;;
58272;SDS011;44075;42.436;18.514;2022-11-15T03:27:19;7.93;;;2.95;;
58272;SDS011;44075;42.436;18.514;2022-11-15T03:29:47;7.55;;;2.65;;
58272;SDS011;44075;42.436;18.514;2022-11-15T03:32:23;7.50;;;2.70;;
58272;SDS011;44075;42.436;18.514;2022-11-15T03:37:20;7.82;;;2.83;;
58272;SDS011;44075;42.436;18.514;2022-11-15T03:39:47;9.23;;;3.25;;
58272;SDS011;44075;42.436;18.514;2022-11-15T03:45:19;10.18;;;3.10;;
58272;SDS011;44075;42.436;18.514;2022-11-15T03:47:49;7.50;;;3.08;;
58272;SDS011;44075;42.436;18.514;2022-11-15T03:50:18;9.77;;;3.28;;
58272;SDS011;44075;42.436;18.514;2022-11-15T03:52:45;7.80;;;3.35;;
58272;SDS011;44075;42.436;18.514;2022-11-15T03:55:14;7.88;;;3.10;;
58272;SDS011;44075;42.436;18.514;2022-11-15T03:57:41;7.38;;;2.97;;
58272;SDS011;44075;42.436;18.514;2022-11-15T04:00:07;7.63;;;3.10;;
58272;SDS011;44075;42.436;18.514;2022-11-15T04:02:37;6.05;;;2.80;;
58272;SDS011;44075;42.436;18.514;2022-11-15T04:05:03;6.95;;;2.75;;
58272;SDS011;44075;42.436;18.514;2022-11-15T04:07:29;9.38;;;3.35;;
58272;SDS011;44075;42.436;18.514;2022-11-15T04:09:55;8.25;;;3.28;;
58272;SDS011;44075;42.436;18.514;2022-11-15T04:12:27;6.88;;;2.47;;
58272;SDS011;44075;42.436;18.514;2022-11-15T04:17:39;9.15;;;2.60;;
58272;SDS011;44075;42.436;18.514;2022-11-15T04:20:13;8.02;;;2.67;;
58272;SDS011;44075;42.436;18.514;2022-11-15T04:22:59;7.00;;;2.88;;
58272;SDS011;44075;42.436;18.514;2022-11-15T04:28:10;8.48;;;2.70;;
58272;SDS011;44075;42.436;18.514;2022-11-15T04:30:36;8.73;;;4.03;;
58272;SDS011;44075;42.436;18.514;2022-11-15T04:33:02;7.50;;;3.97;;
58272;SDS011;44075;42.436;18.514;2022-11-15T04:35:28;8.30;;;3.35;;
58272;SDS011;44075;42.436;18.514;2022-11-15T04:37:55;7.60;;;2.95;;
58272;SDS011;44075;42.436;18.514;2022-11-15T04:40:21;7.93;;;3.63;;
58272;SDS011;44075;42.436;18.514;2022-11-15T04:42:47;8.30;;;3.40;;
58272;SDS011;44075;42.436;18.514;2022-11-15T04:45:13;8.18;;;3.05;;
58272;SDS011;44075;42.436;18.514;2022-11-15T04:47:40;6.68;;;2.80;;
58272;SDS011;44075;42.436;18.514;2022-11-15T04:50:08;8.02;;;2.83;;
58272;SDS011;44075;42.436;18.514;2022-11-15T04:52:37;7.25;;;2.60;;
58272;SDS011;44075;42.436;18.514;2022-11-15T04:55:03;7.03;;;2.83;;
58272;SDS011;44075;42.436;18.514;2022-11-15T04:57:30;6.30;;;2.47;;
58272;SDS011;44075;42.436;18.514;2022-11-15T04:59:56;7.75;;;3.00;;
58272;SDS011;44075;42.436;18.514;2022-11-15T05:02:22;6.78;;;2.72;;
58272;SDS011;44075;42.436;18.514;2022-11-15T05:04:48;9.02;;;2.90;;
58272;SDS011;44075;42.436;18.514;2022-11-15T05:07:17;7.60;;;2.97;;
58272;SDS011;44075;42.436;18.514;2022-11-15T05:09:43;8.50;;;2.88;;
58272;SDS011;44075;42.436;18.514;2022-11-15T05:12:09;7.65;;;2.97;;
58272;SDS011;44075;42.436;18.514;2022-11-15T05:14:35;8.32;;;4.22;;
58272;SDS011;44075;42.436;18.514;2022-11-15T05:17:01;9.65;;;3.97;;
58272;SDS011;44075;42.436;18.514;2022-11-15T05:19:27;7.88;;;4.15;;
58272;SDS011;44075;42.436;18.514;2022-11-15T05:21:53;9.05;;;4.63;;
58272;SDS011;44075;42.436;18.514;2022-11-15T05:24:19;9.05;;;4.00;;
58272;SDS011;44075;42.436;18.514;2022-11-15T05:26:45;9.40;;;3.63;;
58272;SDS011;44075;42.436;18.514;2022-11-15T05:29:11;7.88;;;3.95;;
58272;SDS011;44075;42.436;18.514;2022-11-15T05:31:39;7.93;;;3.80;;
58272;SDS011;44075;42.436;18.514;2022-11-15T05:34:06;6.75;;;3.28;;
58272;SDS011;44075;42.436;18.514;2022-11-15T05:38:58;7.80;;;3.80;;
58272;SDS011;44075;42.436;18.514;2022-11-15T05:41:26;7.40;;;3.50;;
58272;SDS011;44075;42.436;18.514;2022-11-15T05:43:52;9.77;;;3.63;;
58272;SDS011;44075;42.436;18.514;2022-11-15T05:46:19;8.23;;;3.13;;
58272;SDS011;44075;42.436;18.514;2022-11-15T05:48:46;8.80;;;3.53;;
58272;SDS011;44075;42.436;18.514;2022-11-15T05:51:14;6.35;;;2.97;;
58272;SDS011;44075;42.436;18.514;2022-11-15T05:53:41;8.68;;;3.75;;
58272;SDS011;44075;42.436;18.514;2022-11-15T05:56:08;7.50;;;3.10;;
58272;SDS011;44075;42.436;18.514;2022-11-15T05:58:34;8.05;;;2.97;;
58272;SDS011;44075;42.436;18.514;2022-11-15T06:01:01;6.90;;;3.08;;
58272;SDS011;44075;42.436;18.514;2022-11-15T06:03:27;7.50;;;3.30;;
58272;SDS011;44075;42.436;18.514;2022-11-15T06:05:53;11.80;;;4.85;;
58272;SDS011;44075;42.436;18.514;2022-11-15T06:08:19;8.93;;;4.28;;
58272;SDS011;44075;42.436;18.514;2022-11-15T06:10:45;10.15;;;4.30;;
58272;SDS011;44075;42.436;18.514;2022-11-15T06:13:11;10.65;;;4.00;;
58272;SDS011;44075;42.436;18.514;2022-11-15T06:15:37;9.88;;;4.22;;
58272;SDS011;44075;42.436;18.514;2022-11-15T06:18:04;7.72;;;4.15;;
58272;SDS011;44075;42.436;18.514;2022-11-15T06:20:30;11.60;;;3.75;;
58272;SDS011;44075;42.436;18.514;2022-11-15T06:22:57;9.18;;;3.63;;
58272;SDS011;44075;42.436;18.514;2022-11-15T06:25:23;7.75;;;3.80;;
58272;SDS011;44075;42.436;18.514;2022-11-15T06:27:53;8.40;;;4.13;;
58272;SDS011;44075;42.436;18.514;2022-11-15T06:30:19;8.45;;;3.75;;
58272;SDS011;44075;42.436;18.514;2022-11-15T06:32:46;7.20;;;3.22;;
58272;SDS011;44075;42.436;18.514;2022-11-15T06:35:12;9.57;;;3.78;;
58272;SDS011;44075;42.436;18.514;2022-11-15T06:37:39;9.88;;;4.28;;
58272;SDS011;44075;42.436;18.514;2022-11-15T06:40:08;8.73;;;4.00;;
58272;SDS011;44075;42.436;18.514;2022-11-15T06:42:35;7.70;;;3.45;;
58272;SDS011;44075;42.436;18.514;2022-11-15T06:45:01;8.38;;;3.63;;
58272;SDS011;44075;42.436;18.514;2022-11-15T06:47:27;8.18;;;3.83;;
58272;SDS011;44075;42.436;18.514;2022-11-15T06:49:53;8.65;;;3.45;;
58272;SDS011;44075;42.436;18.514;2022-11-15T06:52:22;10.75;;;4.18;;
58272;SDS011;44075;42.436;18.514;2022-11-15T06:54:51;8.55;;;4.20;;
58272;SDS011;44075;42.436;18.514;2022-11-15T06:57:17;7.72;;;3.80;;
58272;SDS011;44075;42.436;18.514;2022-11-15T06:59:43;10.20;;;4.38;;
58272;SDS011;44075;42.436;18.514;2022-11-15T07:02:11;8.68;;;3.90;;
58272;SDS011;44075;42.436;18.514;2022-11-15T07:04:37;8.85;;;3.75;;
58272;SDS011;44075;42.436;18.514;2022-11-15T07:07:03;8.70;;;3.95;;
58272;SDS011;44075;42.436;18.514;2022-11-15T07:09:29;8.40;;;3.25;;
58272;SDS011;44075;42.436;18.514;2022-11-15T07:11:55;6.95;;;3.20;;
58272;SDS011;44075;42.436;18.514;2022-11-15T07:14:21;7.07;;;3.58;;
58272;SDS011;44075;42.436;18.514;2022-11-15T07:16:47;7.30;;;3.25;;
58272;SDS011;44075;42.436;18.514;2022-11-15T07:19:13;8.55;;;3.20;;
58272;SDS011;44075;42.436;18.514;2022-11-15T07:21:40;7.47;;;3.15;;
58272;SDS011;44075;42.436;18.514;2022-11-15T07:24:06;6.50;;;3.10;;
58272;SDS011;44075;42.436;18.514;2022-11-15T07:26:32;6.93;;;2.85;;
58272;SDS011;44075;42.436;18.514;2022-11-15T07:28:58;7.38;;;3.17;;
58272;SDS011;44075;42.436;18.514;2022-11-15T07:31:24;10.15;;;3.67;;
58272;SDS011;44075;42.436;18.514;2022-11-15T07:33:50;8.05;;;3.47;;
58272;SDS011;44075;42.436;18.514;2022-11-15T07:36:16;7.45;;;3.28;;
58272;SDS011;44075;42.436;18.514;2022-11-15T07:38:42;7.00;;;3.47;;
58272;SDS011;44075;42.436;18.514;2022-11-15T07:41:08;6.22;;;3.17;;
58272;SDS011;44075;42.436;18.514;2022-11-15T07:43:35;6.93;;;3.40;;
58272;SDS011;44075;42.436;18.514;2022-11-15T07:46:07;7.50;;;3.22;;
58272;SDS011;44075;42.436;18.514;2022-11-15T07:48:34;7.72;;;3.70;;
58272;SDS011;44075;42.436;18.514;2022-11-15T07:51:00;8.27;;;4.70;;
58272;SDS011;44075;42.436;18.514;2022-11-15T07:53:27;8.25;;;4.70;;
58272;SDS011;44075;42.436;18.514;2022-11-15T07:55:53;8.40;;;4.78;;
58272;SDS011;44075;42.436;18.514;2022-11-15T07:58:19;11.35;;;5.63;;
58272;SDS011;44075;42.436;18.514;2022-11-15T08:00:45;10.90;;;5.70;;
58272;SDS011;44075;42.436;18.514;2022-11-15T08:03:12;12.88;;;6.60;;
58272;SDS011;44075;42.436;18.514;2022-11-15T08:05:39;10.25;;;5.50;;
58272;SDS011;44075;42.436;18.514;2022-11-15T08:08:06;8.65;;;4.80;;
58272;SDS011;44075;42.436;18.514;2022-11-15T08:10:33;11.57;;;5.72;;
58272;SDS011;44075;42.436;18.514;2022-11-15T08:13:07;9.30;;;5.80;;
58272;SDS011;44075;42.436;18.514;2022-11-15T08:15:33;9.48;;;5.30;;
58272;SDS011;44075;42.436;18.514;2022-11-15T08:18:00;10.48;;;4.60;;
58272;SDS011;44075;42.436;18.514;2022-11-15T08:20:30;10.90;;;4.95;;
58272;SDS011;44075;42.436;18.514;2022-11-15T08:22:57;11.85;;;5.57;;
58272;SDS011;44075;42.436;18.514;2022-11-15T08:25:23;9.68;;;5.60;;
58272;SDS011;44075;42.436;18.514;2022-11-15T08:27:58;11.18;;;5.40;;
58272;SDS011;44075;42.436;18.514;2022-11-15T08:30:26;9.23;;;5.30;;
58272;SDS011;44075;42.436;18.514;2022-11-15T08:32:52;10.30;;;5.28;;
58272;SDS011;44075;42.436;18.514;2022-11-15T08:35:19;11.02;;;5.05;;
58272;SDS011;44075;42.436;18.514;2022-11-15T08:37:46;9.50;;;5.05;;
58272;SDS011;44075;42.436;18.514;2022-11-15T08:40:12;7.43;;;4.15;;
58272;SDS011;44075;42.436;18.514;2022-11-15T08:42:39;7.80;;;4.43;;
58272;SDS011;44075;42.436;18.514;2022-11-15T08:45:05;7.47;;;3.60;;
58272;SDS011;44075;42.436;18.514;2022-11-15T08:47:31;7.63;;;4.00;;
58272;SDS011;44075;42.436;18.514;2022-11-15T08:49:58;9.52;;;3.72;;
58272;SDS011;44075;42.436;18.514;2022-11-15T08:52:24;7.03;;;3.58;;
58272;SDS011;44075;42.436;18.514;2022-11-15T08:54:50;7.47;;;3.80;;
58272;SDS011;44075;42.436;18.514;2022-11-15T08:57:16;7.72;;;3.55;;
58272;SDS011;44075;42.436;18.514;2022-11-15T08:59:42;7.32;;;3.50;;
58272;SDS011;44075;42.436;18.514;2022-11-15T09:02:12;6.85;;;3.65;;
58272;SDS011;44075;42.436;18.514;2022-11-15T09:04:41;8.48;;;4.03;;
58272;SDS011;44075;42.436;18.514;2022-11-15T09:07:10;6.93;;;3.30;;
58272;SDS011;44075;42.436;18.514;2022-11-15T09:09:37;7.28;;;3.42;;
58272;SDS011;44075;42.436;18.514;2022-11-15T09:12:03;7.20;;;3.08;;
58272;SDS011;44075;42.436;18.514;2022-11-15T09:14:30;6.63;;;3.38;;
58272;SDS011;44075;42.436;18.514;2022-11-15T09:16:56;7.03;;;2.80;;
58272;SDS011;44075;42.436;18.514;2022-11-15T09:19:23;7.57;;;2.90;;
58272;SDS011;44075;42.436;18.514;2022-11-15T09:21:49;7.40;;;3.20;;
58272;SDS011;44075;42.436;18.514;2022-11-15T09:24:15;6.68;;;2.53;;
58272;SDS011;44075;42.436;18.514;2022-11-15T09:26:42;5.82;;;2.55;;
58272;SDS011;44075;42.436;18.514;2022-11-15T09:29:08;6.72;;;3.20;;
58272;SDS011;44075;42.436;18.514;2022-11-15T09:31:34;7.00;;;2.95;;
58272;SDS011;44075;42.436;18.514;2022-11-15T09:34:00;5.90;;;2.95;;
58272;SDS011;44075;42.436;18.514;2022-11-15T09:36:26;8.93;;;3.60;;
58272;SDS011;44075;42.436;18.514;2022-11-15T09:38:52;6.75;;;2.83;;
58272;SDS011;44075;42.436;18.514;2022-11-15T09:51:22;6.20;;;2.60;;
58272;SDS011;44075;42.436;18.514;2022-11-15T09:56:20;6.80;;;3.03;;
58272;SDS011;44075;42.436;18.514;2022-11-15T09:58:53;6.93;;;2.92;;
58272;SDS011;44075;42.436;18.514;2022-11-15T10:03:47;6.47;;;2.40;;
58272;SDS011;44075;42.436;18.514;2022-11-15T10:06:23;7.20;;;2.72;;
58272;SDS011;44075;42.436;18.514;2022-11-15T10:09:09;7.22;;;2.83;;
58272;SDS011;44075;42.436;18.514;2022-11-15T10:11:37;6.47;;;2.92;;
58272;SDS011;44075;42.436;18.514;2022-11-15T10:14:14;6.13;;;3.03;;
58272;SDS011;44075;42.436;18.514;2022-11-15T10:19:27;6.97;;;2.63;;
58272;SDS011;44075;42.436;18.514;2022-11-15T10:24:24;8.02;;;2.92;;
58272;SDS011;44075;42.436;18.514;2022-11-15T10:26:54;6.57;;;2.60;;
58272;SDS011;44075;42.436;18.514;2022-11-15T10:29:21;8.05;;;3.00;;
58272;SDS011;44075;42.436;18.514;2022-11-15T10:31:48;7.63;;;2.83;;
58272;SDS011;44075;42.436;18.514;2022-11-15T10:34:23;6.15;;;2.92;;
58272;SDS011;44075;42.436;18.514;2022-11-15T10:36:56;5.60;;;2.72;;
58272;SDS011;44075;42.436;18.514;2022-11-15T10:39:23;6.60;;;2.60;;
58272;SDS011;44075;42.436;18.514;2022-11-15T10:41:49;5.80;;;2.22;;
58272;SDS011;44075;42.436;18.514;2022-11-15T10:46:42;6.47;;;2.45;;
58272;SDS011;44075;42.436;18.514;2022-11-15T10:49:18;6.13;;;2.45;;
58272;SDS011;44075;42.436;18.514;2022-11-15T10:54:22;6.88;;;2.60;;
58272;SDS011;44075;42.436;18.514;2022-11-15T10:56:50;6.13;;;2.28;;
58272;SDS011;44075;42.436;18.514;2022-11-15T10:59:18;6.53;;;2.67;;
58272;SDS011;44075;42.436;18.514;2022-11-15T11:01:47;5.65;;;2.22;;
58272;SDS011;44075;42.436;18.514;2022-11-15T11:04:13;6.70;;;2.60;;
58272;SDS011;44075;42.436;18.514;2022-11-15T11:09:23;7.50;;;2.90;;
58272;SDS011;44075;42.436;18.514;2022-11-15T11:11:53;6.05;;;2.60;;
58272;SDS011;44075;42.436;18.514;2022-11-15T11:14:23;6.05;;;2.78;;
58272;SDS011;44075;42.436;18.514;2022-11-15T11:19:39;5.97;;;2.13;;
58272;SDS011;44075;42.436;18.514;2022-11-15T11:22:17;5.88;;;2.72;;
58272;SDS011;44075;42.436;18.514;2022-11-15T11:27:21;5.95;;;2.35;;
58272;SDS011;44075;42.436;18.514;2022-11-15T11:32:32;6.45;;;2.67;;
58272;SDS011;44075;42.436;18.514;2022-11-15T11:35:08;6.43;;;2.90;;
58272;SDS011;44075;42.436;18.514;2022-11-15T11:37:58;5.68;;;2.55;;
58272;SDS011;44075;42.436;18.514;2022-11-15T11:40:30;5.50;;;2.60;;
58272;SDS011;44075;42.436;18.514;2022-11-15T11:50:47;5.70;;;2.28;;
58272;SDS011;44075;42.436;18.514;2022-11-15T11:53:14;6.65;;;2.45;;
58272;SDS011;44075;42.436;18.514;2022-11-15T11:55:43;5.70;;;2.72;;
58272;SDS011;44075;42.436;18.514;2022-11-15T11:58:32;5.40;;;2.40;;
58272;SDS011;44075;42.436;18.514;2022-11-15T12:01:20;7.18;;;2.95;;
58272;SDS011;44075;42.436;18.514;2022-11-15T12:03:49;6.43;;;3.00;;
58272;SDS011;44075;42.436;18.514;2022-11-15T12:06:28;5.82;;;2.67;;
58272;SDS011;44075;42.436;18.514;2022-11-15T12:08:58;6.72;;;3.10;;
58272;SDS011;44075;42.436;18.514;2022-11-15T12:13:56;6.43;;;3.10;;
58272;SDS011;44075;42.436;18.514;2022-11-15T12:16:27;6.15;;;2.83;;
58272;SDS011;44075;42.436;18.514;2022-11-15T12:18:54;6.45;;;2.80;;
58272;SDS011;44075;42.436;18.514;2022-11-15T12:23:54;6.78;;;3.28;;
58272;SDS011;44075;42.436;18.514;2022-11-15T12:26:24;7.45;;;3.13;;
58272;SDS011;44075;42.436;18.514;2022-11-15T12:28:55;7.38;;;2.97;;
58272;SDS011;44075;42.436;18.514;2022-11-15T12:33:57;6.72;;;3.00;;
58272;SDS011;44075;42.436;18.514;2022-11-15T12:41:19;7.82;;;3.17;;
58272;SDS011;44075;42.436;18.514;2022-11-15T12:43:49;7.75;;;3.40;;
58272;SDS011;44075;42.436;18.514;2022-11-15T12:46:19;8.07;;;2.95;;
58272;SDS011;44075;42.436;18.514;2022-11-15T12:48:53;8.63;;;3.22;;
58272;SDS011;44075;42.436;18.514;2022-11-15T12:51:20;9.85;;;3.20;;
58272;SDS011;44075;42.436;18.514;2022-11-15T12:53:46;8.25;;;3.05;;
58272;SDS011;44075;42.436;18.514;2022-11-15T13:09:49;7.60;;;2.75;;
58272;SDS011;44075;42.436;18.514;2022-11-15T13:11:52;7.53;;;3.17;;
58272;SDS011;44075;42.436;18.514;2022-11-15T13:19:48;8.65;;;3.25;;
58272;SDS011;44075;42.436;18.514;2022-11-15T13:22:17;8.15;;;3.13;;
58272;SDS011;44075;42.436;18.514;2022-11-15T13:25:02;8.53;;;3.10;;
58272;SDS011;44075;42.436;18.514;2022-11-15T13:27:28;6.38;;;2.30;;
58272;SDS011;44075;42.436;18.514;2022-11-15T13:29:54;6.60;;;2.25;;
58272;SDS011;44075;42.436;18.514;2022-11-15T13:32:20;6.40;;;2.88;;
58272;SDS011;44075;42.436;18.514;2022-11-15T13:34:47;6.28;;;2.85;;
58272;SDS011;44075;42.436;18.514;2022-11-15T13:39:46;7.68;;;2.83;;
58272;SDS011;44075;42.436;18.514;2022-11-15T13:42:16;7.82;;;3.20;;
58272;SDS011;44075;42.436;18.514;2022-11-15T13:44:56;6.43;;;3.10;;
58272;SDS011;44075;42.436;18.514;2022-11-15T13:47:26;6.78;;;2.92;;
58272;SDS011;44075;42.436;18.514;2022-11-15T13:49:53;7.45;;;2.78;;
58272;SDS011;44075;42.436;18.514;2022-11-15T13:52:22;6.63;;;2.55;;
58272;SDS011;44075;42.436;18.514;2022-11-15T13:54:53;8.85;;;3.13;;
58272;SDS011;44075;42.436;18.514;2022-11-15T13:57:22;6.78;;;2.60;;
58272;SDS011;44075;42.436;18.514;2022-11-15T13:59:53;7.43;;;2.97;;
58272;SDS011;44075;42.436;18.514;2022-11-15T14:02:21;6.30;;;2.55;;
58272;SDS011;44075;42.436;18.514;2022-11-15T14:04:51;8.18;;;2.67;;
58272;SDS011;44075;42.436;18.514;2022-11-15T14:07:20;7.28;;;2.78;;
58272;SDS011;44075;42.436;18.514;2022-11-15T14:09:46;6.78;;;2.30;;
58272;SDS011;44075;42.436;18.514;2022-11-15T14:14:51;6.03;;;2.40;;
58272;SDS011;44075;42.436;18.514;2022-11-15T14:19:56;6.45;;;2.63;;
58272;SDS011;44075;42.436;18.514;2022-11-15T14:22:25;7.55;;;2.70;;
58272;SDS011;44075;42.436;18.514;2022-11-15T14:27:38;7.47;;;2.65;;
58272;SDS011;44075;42.436;18.514;2022-11-15T14:30:04;7.55;;;2.70;;
58272;SDS011;44075;42.436;18.514;2022-11-15T14:32:43;5.90;;;2.45;;
58272;SDS011;44075;42.436;18.514;2022-11-15T14:35:11;6.38;;;2.47;;
58272;SDS011;44075;42.436;18.514;2022-11-15T14:37:38;7.65;;;2.65;;
58272;SDS011;44075;42.436;18.514;2022-11-15T14:40:05;8.48;;;3.00;;
58272;SDS011;44075;42.436;18.514;2022-11-15T14:42:31;7.35;;;2.95;;
58272;SDS011;44075;42.436;18.514;2022-11-15T14:45:01;5.93;;;2.30;;
58272;SDS011;44075;42.436;18.514;2022-11-15T14:47:27;7.53;;;2.50;;
58272;SDS011;44075;42.436;18.514;2022-11-15T14:49:53;7.72;;;2.50;;
58272;SDS011;44075;42.436;18.514;2022-11-15T14:52:22;7.00;;;2.53;;
58272;SDS011;44075;42.436;18.514;2022-11-15T14:54:49;7.05;;;2.75;;
58272;SDS011;44075;42.436;18.514;2022-11-15T14:57:15;7.90;;;2.92;;
58272;SDS011;44075;42.436;18.514;2022-11-15T14:59:41;8.30;;;3.30;;
58272;SDS011;44075;42.436;18.514;2022-11-15T15:02:13;5.90;;;2.50;;
58272;SDS011;44075;42.436;18.514;2022-11-15T15:04:40;7.55;;;3.05;;
58272;SDS011;44075;42.436;18.514;2022-11-15T15:07:06;6.13;;;2.65;;
58272;SDS011;44075;42.436;18.514;2022-11-15T15:09:32;6.15;;;2.35;;
58272;SDS011;44075;42.436;18.514;2022-11-15T15:11:58;7.60;;;2.75;;
58272;SDS011;44075;42.436;18.514;2022-11-15T15:14:24;6.63;;;2.30;;
58272;SDS011;44075;42.436;18.514;2022-11-15T15:16:50;6.45;;;2.38;;
58272;SDS011;44075;42.436;18.514;2022-11-15T15:19:17;6.53;;;2.53;;
58272;SDS011;44075;42.436;18.514;2022-11-15T15:21:43;6.10;;;2.67;;
58272;SDS011;44075;42.436;18.514;2022-11-15T15:24:18;7.28;;;2.20;;
58272;SDS011;44075;42.436;18.514;2022-11-15T15:26:44;6.55;;;2.58;;
58272;SDS011;44075;42.436;18.514;2022-11-15T15:29:10;10.43;;;2.60;;
58272;SDS011;44075;42.436;18.514;2022-11-15T15:31:36;7.10;;;2.47;;
58272;SDS011;44075;42.436;18.514;2022-11-15T15:34:02;8.25;;;3.13;;
58272;SDS011;44075;42.436;18.514;2022-11-15T15:36:28;6.50;;;2.58;;
58272;SDS011;44075;42.436;18.514;2022-11-15T15:38:54;7.57;;;2.78;;
58272;SDS011;44075;42.436;18.514;2022-11-15T15:41:20;8.43;;;2.85;;
58272;SDS011;44075;42.436;18.514;2022-11-15T15:43:46;8.25;;;2.80;;
58272;SDS011;44075;42.436;18.514;2022-11-15T15:46:17;6.80;;;2.65;;
58272;SDS011;44075;42.436;18.514;2022-11-15T15:48:43;6.22;;;2.42;;
58272;SDS011;44075;42.436;18.514;2022-11-15T15:51:09;6.80;;;2.47;;
58272;SDS011;44075;42.436;18.514;2022-11-15T15:53:36;7.55;;;2.53;;
58272;SDS011;44075;42.436;18.514;2022-11-15T15:56:02;7.75;;;2.35;;
58272;SDS011;44075;42.436;18.514;2022-11-15T15:58:29;5.95;;;2.15;;
58272;SDS011;44075;42.436;18.514;2022-11-15T16:00:56;8.15;;;2.50;;
58272;SDS011;44075;42.436;18.514;2022-11-15T16:03:29;7.22;;;2.55;;
58272;SDS011;44075;42.436;18.514;2022-11-15T16:05:55;6.22;;;2.33;;
58272;SDS011;44075;42.436;18.514;2022-11-15T16:08:22;8.05;;;3.10;;
58272;SDS011;44075;42.436;18.514;2022-11-15T16:10:49;7.22;;;2.90;;
58272;SDS011;44075;42.436;18.514;2022-11-15T16:13:15;6.55;;;2.85;;
58272;SDS011;44075;42.436;18.514;2022-11-15T16:15:42;7.00;;;3.45;;
58272;SDS011;44075;42.436;18.514;2022-11-15T16:18:11;8.45;;;3.15;;
58272;SDS011;44075;42.436;18.514;2022-11-15T16:20:41;6.63;;;3.10;;
58272;SDS011;44075;42.436;18.514;2022-11-15T16:23:09;6.72;;;3.10;;
58272;SDS011;44075;42.436;18.514;2022-11-15T16:25:57;7.10;;;3.67;;
58272;SDS011;44075;42.436;18.514;2022-11-15T16:30:48;7.85;;;2.70;;
58272;SDS011;44075;42.436;18.514;2022-11-15T16:33:15;7.07;;;3.22;;
58272;SDS011;44075;42.436;18.514;2022-11-15T16:35:43;9.45;;;3.42;;
58272;SDS011;44075;42.436;18.514;2022-11-15T16:38:13;7.63;;;2.70;;
58272;SDS011;44075;42.436;18.514;2022-11-15T16:40:39;7.55;;;2.97;;
58272;SDS011;44075;42.436;18.514;2022-11-15T16:43:05;7.75;;;3.47;;
58272;SDS011;44075;42.436;18.514;2022-11-15T16:45:33;8.18;;;3.80;;
58272;SDS011;44075;42.436;18.514;2022-11-15T16:47:59;6.88;;;3.20;;
58272;SDS011;44075;42.436;18.514;2022-11-15T16:50:26;7.28;;;3.17;;
58272;SDS011;44075;42.436;18.514;2022-11-15T16:52:53;6.95;;;2.80;;